sensor_id;sensor_type;location;lat;lon;timestamp;P1;durP1;ratioP1;P2;durP2;ratioP2
28176;SDS011;15461;41.652;9.378;2023-06-10T00:01:42;23.42;;;11.60;;
28176;SDS011;15461;41.652;9.378;2023-06-10T00:04:12;17.27;;;11.43;;
28176;SDS011;15461;41.652;9.378;2023-06-10T00:06:44;19.83;;;11.45;;
28176;SDS011;15461;41.652;9.378;2023-06-10T00:09:12;17.92;;;12.18;;
28176;SDS011;15461;41.652;9.378;2023-06-10T00:11:39;22.88;;;11.32;;
28176;SDS011;15461;41.652;9.378;2023-06-10T00:14:06;22.85;;;11.00;;
28176;SDS011;15461;41.652;9.378;2023-06-10T00:16:32;17.52;;;11.00;;
28176;SDS011;15461;41.652;9.378;2023-06-10T00:18:59;18.58;;;11.73;;
28176;SDS011;15461;41.652;9.378;2023-06-10T00:21:29;23.55;;;11.55;;
28176;SDS011;15461;41.652;9.378;2023-06-10T00:24:03;20.38;;;11.18;;
28176;SDS011;15461;41.652;9.378;2023-06-10T00:26:30;24.35;;;10.98;;
28176;SDS011;15461;41.652;9.378;2023-06-10T00:28:57;21.73;;;11.63;;
28176;SDS011;15461;41.652;9.378;2023-06-10T00:31:23;22.95;;;11.38;;
28176;SDS011;15461;41.652;9.378;2023-06-10T00:33:49;19.05;;;11.80;;
28176;SDS011;15461;41.652;9.378;2023-06-10T00:36:14;19.90;;;11.00;;
28176;SDS011;15461;41.652;9.378;2023-06-10T00:38:40;17.73;;;11.07;;
28176;SDS011;15461;41.652;9.378;2023-06-10T00:41:08;20.95;;;10.48;;
28176;SDS011;15461;41.652;9.378;2023-06-10T00:43:34;12.77;;;9.75;;
28176;SDS011;15461;41.652;9.378;2023-06-10T00:46:00;17.35;;;10.38;;
28176;SDS011;15461;41.652;9.378;2023-06-10T00:48:28;15.27;;;9.43;;
28176;SDS011;15461;41.652;9.378;2023-06-10T00:50:55;15.80;;;10.43;;
28176;SDS011;15461;41.652;9.378;2023-06-10T00:53:22;19.75;;;10.02;;
28176;SDS011;15461;41.652;9.378;2023-06-10T00:55:48;14.35;;;9.68;;
28176;SDS011;15461;41.652;9.378;2023-06-10T00:58:14;14.95;;;9.43;;
28176;SDS011;15461;41.652;9.378;2023-06-10T01:00:40;18.25;;;9.77;;
28176;SDS011;15461;41.652;9.378;2023-06-10T01:03:10;13.18;;;9.82;;
28176;SDS011;15461;41.652;9.378;2023-06-10T01:05:39;15.57;;;9.52;;
28176;SDS011;15461;41.652;9.378;2023-06-10T01:08:13;15.60;;;9.38;;
28176;SDS011;15461;41.652;9.378;2023-06-10T01:10:55;15.15;;;9.55;;
28176;SDS011;15461;41.652;9.378;2023-06-10T01:13:24;12.23;;;9.65;;
28176;SDS011;15461;41.652;9.378;2023-06-10T01:15:54;13.20;;;9.35;;
28176;SDS011;15461;41.652;9.378;2023-06-10T01:18:23;15.40;;;9.85;;
28176;SDS011;15461;41.652;9.378;2023-06-10T01:20:56;17.70;;;9.63;;
28176;SDS011;15461;41.652;9.378;2023-06-10T01:23:22;16.73;;;9.50;;
28176;SDS011;15461;41.652;9.378;2023-06-10T01:25:57;16.13;;;9.88;;
28176;SDS011;15461;41.652;9.378;2023-06-10T01:28:38;15.13;;;9.70;;
28176;SDS011;15461;41.652;9.378;2023-06-10T01:31:31;17.55;;;10.23;;
28176;SDS011;15461;41.652;9.378;2023-06-10T01:34:12;17.90;;;10.23;;
28176;SDS011;15461;41.652;9.378;2023-06-10T01:36:41;18.83;;;10.43;;
28176;SDS011;15461;41.652;9.378;2023-06-10T01:39:13;15.23;;;10.30;;
28176;SDS011;15461;41.652;9.378;2023-06-10T01:41:41;18.75;;;11.18;;
28176;SDS011;15461;41.652;9.378;2023-06-10T01:44:07;19.40;;;10.40;;
28176;SDS011;15461;41.652;9.378;2023-06-10T01:46:33;16.70;;;10.55;;
28176;SDS011;15461;41.652;9.378;2023-06-10T01:48:58;18.45;;;10.63;;
28176;SDS011;15461;41.652;9.378;2023-06-10T01:51:25;18.65;;;10.40;;
28176;SDS011;15461;41.652;9.378;2023-06-10T01:53:50;21.08;;;10.50;;
28176;SDS011;15461;41.652;9.378;2023-06-10T01:56:16;19.67;;;10.73;;
28176;SDS011;15461;41.652;9.378;2023-06-10T01:58:45;21.70;;;11.50;;
28176;SDS011;15461;41.652;9.378;2023-06-10T02:01:12;17.02;;;10.68;;
28176;SDS011;15461;41.652;9.378;2023-06-10T02:03:38;15.27;;;10.32;;
28176;SDS011;15461;41.652;9.378;2023-06-10T02:06:03;15.82;;;10.05;;
28176;SDS011;15461;41.652;9.378;2023-06-10T02:08:29;19.02;;;9.98;;
28176;SDS011;15461;41.652;9.378;2023-06-10T02:10:55;17.80;;;9.68;;
28176;SDS011;15461;41.652;9.378;2023-06-10T02:13:21;14.05;;;9.52;;
28176;SDS011;15461;41.652;9.378;2023-06-10T02:15:51;17.95;;;9.70;;
28176;SDS011;15461;41.652;9.378;2023-06-10T02:18:19;16.08;;;9.15;;
28176;SDS011;15461;41.652;9.378;2023-06-10T02:20:46;16.67;;;9.52;;
28176;SDS011;15461;41.652;9.378;2023-06-10T02:23:11;15.05;;;10.45;;
28176;SDS011;15461;41.652;9.378;2023-06-10T02:25:38;16.65;;;10.07;;
28176;SDS011;15461;41.652;9.378;2023-06-10T02:28:03;14.15;;;10.63;;
28176;SDS011;15461;41.652;9.378;2023-06-10T02:30:29;21.42;;;10.57;;
28176;SDS011;15461;41.652;9.378;2023-06-10T02:32:55;17.98;;;10.88;;
28176;SDS011;15461;41.652;9.378;2023-06-10T02:35:23;15.85;;;11.18;;
28176;SDS011;15461;41.652;9.378;2023-06-10T02:37:51;16.98;;;10.65;;
28176;SDS011;15461;41.652;9.378;2023-06-10T02:40:18;21.55;;;11.07;;
28176;SDS011;15461;41.652;9.378;2023-06-10T02:42:44;14.38;;;10.18;;
28176;SDS011;15461;41.652;9.378;2023-06-10T02:45:10;11.80;;;10.02;;
28176;SDS011;15461;41.652;9.378;2023-06-10T02:47:41;15.77;;;9.55;;
28176;SDS011;15461;41.652;9.378;2023-06-10T02:50:08;15.13;;;9.73;;
28176;SDS011;15461;41.652;9.378;2023-06-10T02:52:43;13.88;;;9.93;;
28176;SDS011;15461;41.652;9.378;2023-06-10T02:55:10;13.93;;;9.85;;
28176;SDS011;15461;41.652;9.378;2023-06-10T02:57:38;18.85;;;9.63;;
28176;SDS011;15461;41.652;9.378;2023-06-10T03:00:04;11.93;;;9.05;;
28176;SDS011;15461;41.652;9.378;2023-06-10T03:02:37;21.25;;;9.60;;
28176;SDS011;15461;41.652;9.378;2023-06-10T03:05:05;12.43;;;9.30;;
28176;SDS011;15461;41.652;9.378;2023-06-10T03:07:37;13.57;;;9.30;;
28176;SDS011;15461;41.652;9.378;2023-06-10T03:10:03;9.85;;;8.60;;
28176;SDS011;15461;41.652;9.378;2023-06-10T03:12:30;12.57;;;8.60;;
28176;SDS011;15461;41.652;9.378;2023-06-10T03:14:56;17.70;;;8.88;;
28176;SDS011;15461;41.652;9.378;2023-06-10T03:17:22;11.32;;;9.07;;
28176;SDS011;15461;41.652;9.378;2023-06-10T03:19:48;17.27;;;8.70;;
28176;SDS011;15461;41.652;9.378;2023-06-10T03:22:15;11.90;;;8.63;;
28176;SDS011;15461;41.652;9.378;2023-06-10T03:24:48;13.50;;;8.88;;
28176;SDS011;15461;41.652;9.378;2023-06-10T03:27:15;11.73;;;8.80;;
28176;SDS011;15461;41.652;9.378;2023-06-10T03:29:44;12.32;;;7.97;;
28176;SDS011;15461;41.652;9.378;2023-06-10T03:32:10;12.15;;;8.45;;
28176;SDS011;15461;41.652;9.378;2023-06-10T03:34:38;12.20;;;8.57;;
28176;SDS011;15461;41.652;9.378;2023-06-10T03:37:04;11.43;;;8.45;;
28176;SDS011;15461;41.652;9.378;2023-06-10T03:39:31;12.90;;;8.52;;
28176;SDS011;15461;41.652;9.378;2023-06-10T03:41:58;12.18;;;8.52;;
28176;SDS011;15461;41.652;9.378;2023-06-10T03:44:25;9.55;;;7.90;;
28176;SDS011;15461;41.652;9.378;2023-06-10T03:46:51;13.15;;;9.23;;
28176;SDS011;15461;41.652;9.378;2023-06-10T03:49:18;13.32;;;8.32;;
28176;SDS011;15461;41.652;9.378;2023-06-10T03:51:44;12.25;;;8.82;;
28176;SDS011;15461;41.652;9.378;2023-06-10T03:54:10;11.98;;;8.35;;
28176;SDS011;15461;41.652;9.378;2023-06-10T03:56:36;12.18;;;8.30;;
28176;SDS011;15461;41.652;9.378;2023-06-10T03:59:02;15.15;;;8.40;;
28176;SDS011;15461;41.652;9.378;2023-06-10T04:01:28;12.63;;;8.73;;
28176;SDS011;15461;41.652;9.378;2023-06-10T04:03:54;12.50;;;9.02;;
28176;SDS011;15461;41.652;9.378;2023-06-10T04:06:20;14.90;;;8.65;;
28176;SDS011;15461;41.652;9.378;2023-06-10T04:08:47;12.05;;;8.60;;
28176;SDS011;15461;41.652;9.378;2023-06-10T04:11:13;11.43;;;8.93;;
28176;SDS011;15461;41.652;9.378;2023-06-10T04:13:39;11.32;;;8.38;;
28176;SDS011;15461;41.652;9.378;2023-06-10T04:16:05;10.05;;;8.85;;
28176;SDS011;15461;41.652;9.378;2023-06-10T04:18:31;14.48;;;9.02;;
28176;SDS011;15461;41.652;9.378;2023-06-10T04:21:02;12.07;;;9.10;;
28176;SDS011;15461;41.652;9.378;2023-06-10T04:23:29;14.63;;;8.88;;
28176;SDS011;15461;41.652;9.378;2023-06-10T04:25:55;14.02;;;8.75;;
28176;SDS011;15461;41.652;9.378;2023-06-10T04:28:22;10.98;;;8.23;;
28176;SDS011;15461;41.652;9.378;2023-06-10T04:30:48;13.27;;;8.82;;
28176;SDS011;15461;41.652;9.378;2023-06-10T04:33:14;10.90;;;8.45;;
28176;SDS011;15461;41.652;9.378;2023-06-10T04:35:41;11.02;;;8.82;;
28176;SDS011;15461;41.652;9.378;2023-06-10T04:38:10;13.18;;;8.85;;
28176;SDS011;15461;41.652;9.378;2023-06-10T04:40:37;13.10;;;8.80;;
28176;SDS011;15461;41.652;9.378;2023-06-10T04:43:03;16.25;;;9.05;;
28176;SDS011;15461;41.652;9.378;2023-06-10T04:45:31;13.65;;;9.32;;
28176;SDS011;15461;41.652;9.378;2023-06-10T04:47:57;15.82;;;9.98;;
28176;SDS011;15461;41.652;9.378;2023-06-10T04:50:25;14.05;;;10.07;;
28176;SDS011;15461;41.652;9.378;2023-06-10T04:52:52;16.80;;;11.00;;
28176;SDS011;15461;41.652;9.378;2023-06-10T04:55:18;14.93;;;10.55;;
28176;SDS011;15461;41.652;9.378;2023-06-10T04:57:43;16.40;;;10.05;;
28176;SDS011;15461;41.652;9.378;2023-06-10T05:00:10;13.15;;;9.88;;
28176;SDS011;15461;41.652;9.378;2023-06-10T05:02:36;15.25;;;11.02;;
28176;SDS011;15461;41.652;9.378;2023-06-10T05:05:01;16.92;;;10.20;;
28176;SDS011;15461;41.652;9.378;2023-06-10T05:07:27;16.80;;;11.10;;
28176;SDS011;15461;41.652;9.378;2023-06-10T05:09:53;16.05;;;11.40;;
28176;SDS011;15461;41.652;9.378;2023-06-10T05:12:19;20.55;;;11.57;;
28176;SDS011;15461;41.652;9.378;2023-06-10T05:14:44;21.27;;;12.07;;
28176;SDS011;15461;41.652;9.378;2023-06-10T05:17:11;19.77;;;11.60;;
28176;SDS011;15461;41.652;9.378;2023-06-10T05:19:38;21.25;;;10.70;;
28176;SDS011;15461;41.652;9.378;2023-06-10T05:22:04;16.67;;;10.10;;
28176;SDS011;15461;41.652;9.378;2023-06-10T05:24:30;17.52;;;9.95;;
28176;SDS011;15461;41.652;9.378;2023-06-10T05:26:55;17.15;;;9.88;;
28176;SDS011;15461;41.652;9.378;2023-06-10T05:29:21;15.25;;;10.07;;
28176;SDS011;15461;41.652;9.378;2023-06-10T05:31:48;15.38;;;9.77;;
28176;SDS011;15461;41.652;9.378;2023-06-10T05:34:13;11.50;;;8.63;;
28176;SDS011;15461;41.652;9.378;2023-06-10T05:36:39;15.73;;;8.82;;
28176;SDS011;15461;41.652;9.378;2023-06-10T05:39:05;15.20;;;9.25;;
28176;SDS011;15461;41.652;9.378;2023-06-10T05:41:31;18.40;;;9.00;;
28176;SDS011;15461;41.652;9.378;2023-06-10T05:43:57;15.27;;;8.10;;
28176;SDS011;15461;41.652;9.378;2023-06-10T05:46:22;12.63;;;7.97;;
28176;SDS011;15461;41.652;9.378;2023-06-10T05:48:49;17.48;;;8.68;;
28176;SDS011;15461;41.652;9.378;2023-06-10T05:51:14;14.63;;;8.23;;
28176;SDS011;15461;41.652;9.378;2023-06-10T05:53:40;16.05;;;9.10;;
28176;SDS011;15461;41.652;9.378;2023-06-10T05:56:06;14.23;;;8.38;;
28176;SDS011;15461;41.652;9.378;2023-06-10T05:58:32;10.80;;;8.07;;
28176;SDS011;15461;41.652;9.378;2023-06-10T06:00:58;15.77;;;8.40;;
28176;SDS011;15461;41.652;9.378;2023-06-10T06:03:25;17.30;;;7.78;;
28176;SDS011;15461;41.652;9.378;2023-06-10T06:05:50;15.93;;;8.23;;
28176;SDS011;15461;41.652;9.378;2023-06-10T06:08:16;11.02;;;7.68;;
28176;SDS011;15461;41.652;9.378;2023-06-10T06:10:46;12.35;;;7.75;;
28176;SDS011;15461;41.652;9.378;2023-06-10T06:13:13;18.58;;;8.07;;
28176;SDS011;15461;41.652;9.378;2023-06-10T06:15:39;15.35;;;8.40;;
28176;SDS011;15461;41.652;9.378;2023-06-10T06:18:04;20.27;;;8.25;;
28176;SDS011;15461;41.652;9.378;2023-06-10T06:20:30;16.20;;;8.40;;
28176;SDS011;15461;41.652;9.378;2023-06-10T06:22:56;16.25;;;8.25;;
28176;SDS011;15461;41.652;9.378;2023-06-10T06:25:22;17.27;;;8.10;;
28176;SDS011;15461;41.652;9.378;2023-06-10T06:27:48;20.58;;;7.50;;
28176;SDS011;15461;41.652;9.378;2023-06-10T06:30:14;12.25;;;7.85;;
28176;SDS011;15461;41.652;9.378;2023-06-10T06:32:39;13.30;;;7.50;;
28176;SDS011;15461;41.652;9.378;2023-06-10T06:35:05;17.05;;;7.18;;
28176;SDS011;15461;41.652;9.378;2023-06-10T06:37:33;15.75;;;7.82;;
28176;SDS011;15461;41.652;9.378;2023-06-10T06:40:12;17.67;;;7.15;;
28176;SDS011;15461;41.652;9.378;2023-06-10T06:42:39;20.35;;;7.72;;
28176;SDS011;15461;41.652;9.378;2023-06-10T06:45:16;15.43;;;7.20;;
28176;SDS011;15461;41.652;9.378;2023-06-10T06:47:42;14.90;;;6.38;;
28176;SDS011;15461;41.652;9.378;2023-06-10T06:50:08;12.63;;;6.55;;
28176;SDS011;15461;41.652;9.378;2023-06-10T06:52:35;14.88;;;7.03;;
28176;SDS011;15461;41.652;9.378;2023-06-10T06:55:00;12.73;;;6.50;;
28176;SDS011;15461;41.652;9.378;2023-06-10T06:57:26;16.38;;;7.07;;
28176;SDS011;15461;41.652;9.378;2023-06-10T06:59:52;15.45;;;6.68;;
28176;SDS011;15461;41.652;9.378;2023-06-10T07:02:18;13.07;;;6.03;;
28176;SDS011;15461;41.652;9.378;2023-06-10T07:04:44;12.30;;;6.20;;
28176;SDS011;15461;41.652;9.378;2023-06-10T07:07:12;13.57;;;6.22;;
28176;SDS011;15461;41.652;9.378;2023-06-10T07:09:38;13.50;;;6.40;;
28176;SDS011;15461;41.652;9.378;2023-06-10T07:12:04;16.38;;;6.97;;
28176;SDS011;15461;41.652;9.378;2023-06-10T07:14:30;16.75;;;7.05;;
28176;SDS011;15461;41.652;9.378;2023-06-10T07:16:56;18.13;;;6.75;;
28176;SDS011;15461;41.652;9.378;2023-06-10T07:19:22;19.00;;;6.70;;
28176;SDS011;15461;41.652;9.378;2023-06-10T07:21:48;19.85;;;6.70;;
28176;SDS011;15461;41.652;9.378;2023-06-10T07:24:13;17.50;;;6.65;;
28176;SDS011;15461;41.652;9.378;2023-06-10T07:26:39;18.02;;;6.40;;
28176;SDS011;15461;41.652;9.378;2023-06-10T07:29:05;12.30;;;6.43;;
28176;SDS011;15461;41.652;9.378;2023-06-10T07:31:31;22.00;;;7.20;;
28176;SDS011;15461;41.652;9.378;2023-06-10T07:33:56;14.18;;;6.53;;
28176;SDS011;15461;41.652;9.378;2023-06-10T07:36:22;18.88;;;7.60;;
28176;SDS011;15461;41.652;9.378;2023-06-10T07:38:48;23.85;;;7.55;;
28176;SDS011;15461;41.652;9.378;2023-06-10T07:41:14;15.48;;;6.65;;
28176;SDS011;15461;41.652;9.378;2023-06-10T07:43:43;17.02;;;6.97;;
28176;SDS011;15461;41.652;9.378;2023-06-10T07:46:08;14.02;;;7.03;;
28176;SDS011;15461;41.652;9.378;2023-06-10T07:48:34;21.00;;;7.20;;
28176;SDS011;15461;41.652;9.378;2023-06-10T07:51:00;19.23;;;7.25;;
28176;SDS011;15461;41.652;9.378;2023-06-10T07:53:26;18.42;;;6.88;;
28176;SDS011;15461;41.652;9.378;2023-06-10T07:55:52;14.60;;;7.28;;
28176;SDS011;15461;41.652;9.378;2023-06-10T07:58:17;76.70;;;13.75;;
28176;SDS011;15461;41.652;9.378;2023-06-10T08:00:43;18.88;;;6.75;;
28176;SDS011;15461;41.652;9.378;2023-06-10T08:03:09;15.93;;;6.32;;
28176;SDS011;15461;41.652;9.378;2023-06-10T08:05:35;15.25;;;6.30;;
28176;SDS011;15461;41.652;9.378;2023-06-10T08:08:00;16.42;;;6.47;;
28176;SDS011;15461;41.652;9.378;2023-06-10T08:10:26;18.33;;;6.05;;
28176;SDS011;15461;41.652;9.378;2023-06-10T08:12:52;19.88;;;6.57;;
28176;SDS011;15461;41.652;9.378;2023-06-10T08:15:18;13.60;;;6.60;;
28176;SDS011;15461;41.652;9.378;2023-06-10T08:17:43;16.85;;;6.38;;
28176;SDS011;15461;41.652;9.378;2023-06-10T08:20:09;17.27;;;6.60;;
28176;SDS011;15461;41.652;9.378;2023-06-10T08:22:35;15.77;;;6.60;;
28176;SDS011;15461;41.652;9.378;2023-06-10T08:25:01;19.63;;;6.57;;
28176;SDS011;15461;41.652;9.378;2023-06-10T08:27:27;18.75;;;6.28;;
28176;SDS011;15461;41.652;9.378;2023-06-10T08:29:52;15.05;;;6.07;;
28176;SDS011;15461;41.652;9.378;2023-06-10T08:32:18;13.13;;;6.25;;
28176;SDS011;15461;41.652;9.378;2023-06-10T08:34:44;16.15;;;6.13;;
28176;SDS011;15461;41.652;9.378;2023-06-10T08:37:10;18.98;;;6.25;;
28176;SDS011;15461;41.652;9.378;2023-06-10T08:39:35;18.50;;;5.68;;
28176;SDS011;15461;41.652;9.378;2023-06-10T08:44:42;15.07;;;6.30;;
28176;SDS011;15461;41.652;9.378;2023-06-10T08:47:14;15.45;;;6.18;;
28176;SDS011;15461;41.652;9.378;2023-06-10T08:49:43;16.38;;;5.80;;
28176;SDS011;15461;41.652;9.378;2023-06-10T08:52:11;12.20;;;5.63;;
28176;SDS011;15461;41.652;9.378;2023-06-10T08:54:43;15.55;;;5.72;;
28176;SDS011;15461;41.652;9.378;2023-06-10T08:57:15;13.80;;;5.80;;
28176;SDS011;15461;41.652;9.378;2023-06-10T08:59:42;11.20;;;5.60;;
28176;SDS011;15461;41.652;9.378;2023-06-10T09:02:08;12.60;;;5.30;;
28176;SDS011;15461;41.652;9.378;2023-06-10T09:04:35;14.02;;;5.60;;
28176;SDS011;15461;41.652;9.378;2023-06-10T09:07:02;35.60;;;6.90;;
28176;SDS011;15461;41.652;9.378;2023-06-10T09:09:28;15.73;;;5.22;;
28176;SDS011;15461;41.652;9.378;2023-06-10T09:11:57;15.93;;;5.68;;
28176;SDS011;15461;41.652;9.378;2023-06-10T09:14:23;16.33;;;5.40;;
28176;SDS011;15461;41.652;9.378;2023-06-10T09:16:49;13.75;;;5.53;;
28176;SDS011;15461;41.652;9.378;2023-06-10T09:19:18;14.15;;;5.20;;
28176;SDS011;15461;41.652;9.378;2023-06-10T09:21:46;9.48;;;5.00;;
28176;SDS011;15461;41.652;9.378;2023-06-10T09:24:12;10.23;;;5.20;;
28176;SDS011;15461;41.652;9.378;2023-06-10T09:26:38;13.63;;;5.60;;
28176;SDS011;15461;41.652;9.378;2023-06-10T09:29:07;16.63;;;5.65;;
28176;SDS011;15461;41.652;9.378;2023-06-10T09:31:35;24.77;;;5.75;;
28176;SDS011;15461;41.652;9.378;2023-06-10T09:34:06;11.70;;;5.43;;
28176;SDS011;15461;41.652;9.378;2023-06-10T09:36:33;14.18;;;5.95;;
28176;SDS011;15461;41.652;9.378;2023-06-10T09:39:00;14.10;;;5.55;;
28176;SDS011;15461;41.652;9.378;2023-06-10T09:41:35;16.13;;;5.78;;
28176;SDS011;15461;41.652;9.378;2023-06-10T09:44:09;12.57;;;5.57;;
28176;SDS011;15461;41.652;9.378;2023-06-10T09:46:41;12.10;;;5.35;;
28176;SDS011;15461;41.652;9.378;2023-06-10T09:49:07;11.05;;;5.60;;
28176;SDS011;15461;41.652;9.378;2023-06-10T09:51:33;13.00;;;5.53;;
28176;SDS011;15461;41.652;9.378;2023-06-10T09:53:59;14.73;;;5.40;;
28176;SDS011;15461;41.652;9.378;2023-06-10T09:56:38;16.42;;;5.45;;
28176;SDS011;15461;41.652;9.378;2023-06-10T09:59:08;14.02;;;6.28;;
28176;SDS011;15461;41.652;9.378;2023-06-10T10:01:34;19.38;;;5.47;;
28176;SDS011;15461;41.652;9.378;2023-06-10T10:04:00;17.45;;;6.05;;
28176;SDS011;15461;41.652;9.378;2023-06-10T10:06:26;13.73;;;5.25;;
28176;SDS011;15461;41.652;9.378;2023-06-10T10:08:54;12.90;;;5.47;;
28176;SDS011;15461;41.652;9.378;2023-06-10T10:11:20;14.02;;;5.35;;
28176;SDS011;15461;41.652;9.378;2023-06-10T10:13:51;16.80;;;5.75;;
28176;SDS011;15461;41.652;9.378;2023-06-10T10:16:21;19.70;;;6.43;;
28176;SDS011;15461;41.652;9.378;2023-06-10T10:18:58;13.77;;;5.90;;
28176;SDS011;15461;41.652;9.378;2023-06-10T10:21:35;18.73;;;6.03;;
28176;SDS011;15461;41.652;9.378;2023-06-10T10:27:06;15.05;;;6.60;;
28176;SDS011;15461;41.652;9.378;2023-06-10T10:29:39;13.20;;;5.75;;
28176;SDS011;15461;41.652;9.378;2023-06-10T10:32:06;18.52;;;6.38;;
28176;SDS011;15461;41.652;9.378;2023-06-10T10:34:35;14.05;;;5.47;;
28176;SDS011;15461;41.652;9.378;2023-06-10T10:37:09;19.83;;;5.82;;
28176;SDS011;15461;41.652;9.378;2023-06-10T10:39:35;12.98;;;6.13;;
28176;SDS011;15461;41.652;9.378;2023-06-10T10:42:02;16.50;;;6.00;;
28176;SDS011;15461;41.652;9.378;2023-06-10T10:44:29;16.30;;;5.68;;
28176;SDS011;15461;41.652;9.378;2023-06-10T10:46:55;12.52;;;5.40;;
28176;SDS011;15461;41.652;9.378;2023-06-10T10:49:23;10.75;;;5.40;;
28176;SDS011;15461;41.652;9.378;2023-06-10T10:51:55;15.23;;;5.82;;
28176;SDS011;15461;41.652;9.378;2023-06-10T10:54:28;12.63;;;5.85;;
28176;SDS011;15461;41.652;9.378;2023-06-10T11:00:09;14.95;;;6.18;;
28176;SDS011;15461;41.652;9.378;2023-06-10T11:05:03;16.30;;;6.70;;
28176;SDS011;15461;41.652;9.378;2023-06-10T11:07:34;15.45;;;6.40;;
28176;SDS011;15461;41.652;9.378;2023-06-10T11:10:08;14.60;;;6.05;;
28176;SDS011;15461;41.652;9.378;2023-06-10T11:15:10;18.17;;;6.45;;
28176;SDS011;15461;41.652;9.378;2023-06-10T11:28:38;20.92;;;6.18;;
28176;SDS011;15461;41.652;9.378;2023-06-10T11:31:04;18.48;;;6.75;;
28176;SDS011;15461;41.652;9.378;2023-06-10T11:33:30;15.20;;;6.20;;
28176;SDS011;15461;41.652;9.378;2023-06-10T11:35:57;19.85;;;6.78;;
28176;SDS011;15461;41.652;9.378;2023-06-10T11:38:26;20.15;;;6.50;;
28176;SDS011;15461;41.652;9.378;2023-06-10T11:40:53;18.45;;;6.38;;
28176;SDS011;15461;41.652;9.378;2023-06-10T11:43:19;21.52;;;7.15;;
28176;SDS011;15461;41.652;9.378;2023-06-10T11:45:45;16.42;;;6.30;;
28176;SDS011;15461;41.652;9.378;2023-06-10T11:48:12;16.15;;;6.40;;
28176;SDS011;15461;41.652;9.378;2023-06-10T11:50:38;16.75;;;6.20;;
28176;SDS011;15461;41.652;9.378;2023-06-10T11:53:07;15.52;;;6.57;;
28176;SDS011;15461;41.652;9.378;2023-06-10T11:58:11;16.90;;;6.80;;
28176;SDS011;15461;41.652;9.378;2023-06-10T12:00:59;21.63;;;7.22;;
28176;SDS011;15461;41.652;9.378;2023-06-10T12:03:26;16.83;;;6.38;;
28176;SDS011;15461;41.652;9.378;2023-06-10T12:08:28;17.35;;;6.18;;
28176;SDS011;15461;41.652;9.378;2023-06-10T12:10:54;13.07;;;5.88;;
28176;SDS011;15461;41.652;9.378;2023-06-10T12:13:21;20.65;;;7.30;;
28176;SDS011;15461;41.652;9.378;2023-06-10T12:15:49;18.17;;;6.20;;
28176;SDS011;15461;41.652;9.378;2023-06-10T12:18:18;14.65;;;5.88;;
28176;SDS011;15461;41.652;9.378;2023-06-10T12:20:48;15.82;;;5.60;;
28176;SDS011;15461;41.652;9.378;2023-06-10T12:23:16;16.90;;;6.05;;
28176;SDS011;15461;41.652;9.378;2023-06-10T12:25:49;17.15;;;6.20;;
28176;SDS011;15461;41.652;9.378;2023-06-10T12:28:17;16.63;;;6.30;;
28176;SDS011;15461;41.652;9.378;2023-06-10T12:30:45;17.38;;;6.18;;
28176;SDS011;15461;41.652;9.378;2023-06-10T12:33:21;16.67;;;5.25;;
28176;SDS011;15461;41.652;9.378;2023-06-10T12:35:52;16.33;;;5.63;;
28176;SDS011;15461;41.652;9.378;2023-06-10T12:38:25;22.02;;;5.57;;
28176;SDS011;15461;41.652;9.378;2023-06-10T12:40:57;12.00;;;5.32;;
28176;SDS011;15461;41.652;9.378;2023-06-10T12:43:30;15.77;;;5.57;;
28176;SDS011;15461;41.652;9.378;2023-06-10T12:45:56;17.05;;;5.25;;
28176;SDS011;15461;41.652;9.378;2023-06-10T12:48:34;14.20;;;5.40;;
28176;SDS011;15461;41.652;9.378;2023-06-10T12:50:59;14.45;;;5.47;;
28176;SDS011;15461;41.652;9.378;2023-06-10T12:53:26;13.73;;;4.95;;
28176;SDS011;15461;41.652;9.378;2023-06-10T12:55:52;16.33;;;5.65;;
28176;SDS011;15461;41.652;9.378;2023-06-10T12:58:21;11.65;;;5.13;;
28176;SDS011;15461;41.652;9.378;2023-06-10T13:00:48;13.52;;;5.10;;
28176;SDS011;15461;41.652;9.378;2023-06-10T13:03:17;14.00;;;5.05;;
28176;SDS011;15461;41.652;9.378;2023-06-10T13:05:43;14.75;;;4.88;;
28176;SDS011;15461;41.652;9.378;2023-06-10T13:08:09;17.88;;;5.43;;
28176;SDS011;15461;41.652;9.378;2023-06-10T13:10:38;16.25;;;5.00;;
28176;SDS011;15461;41.652;9.378;2023-06-10T13:13:04;13.90;;;5.10;;
28176;SDS011;15461;41.652;9.378;2023-06-10T13:15:32;15.98;;;5.60;;
28176;SDS011;15461;41.652;9.378;2023-06-10T13:18:01;15.93;;;5.35;;
28176;SDS011;15461;41.652;9.378;2023-06-10T13:20:28;16.77;;;5.63;;
28176;SDS011;15461;41.652;9.378;2023-06-10T13:22:55;17.73;;;5.30;;
28176;SDS011;15461;41.652;9.378;2023-06-10T13:25:20;17.27;;;6.00;;
28176;SDS011;15461;41.652;9.378;2023-06-10T13:27:46;15.90;;;5.47;;
28176;SDS011;15461;41.652;9.378;2023-06-10T13:30:12;16.83;;;5.57;;
28176;SDS011;15461;41.652;9.378;2023-06-10T13:32:38;13.88;;;5.40;;
28176;SDS011;15461;41.652;9.378;2023-06-10T13:35:04;17.88;;;5.80;;
28176;SDS011;15461;41.652;9.378;2023-06-10T13:37:31;15.27;;;5.85;;
28176;SDS011;15461;41.652;9.378;2023-06-10T13:39:58;21.10;;;6.25;;
28176;SDS011;15461;41.652;9.378;2023-06-10T13:42:25;18.20;;;6.10;;
28176;SDS011;15461;41.652;9.378;2023-06-10T13:44:54;14.20;;;6.43;;
28176;SDS011;15461;41.652;9.378;2023-06-10T13:47:20;21.60;;;6.93;;
28176;SDS011;15461;41.652;9.378;2023-06-10T13:49:46;22.52;;;7.53;;
28176;SDS011;15461;41.652;9.378;2023-06-10T13:52:11;18.92;;;6.65;;
28176;SDS011;15461;41.652;9.378;2023-06-10T13:54:37;20.42;;;6.88;;
28176;SDS011;15461;41.652;9.378;2023-06-10T13:57:03;17.88;;;6.70;;
28176;SDS011;15461;41.652;9.378;2023-06-10T13:59:29;21.27;;;6.82;;
28176;SDS011;15461;41.652;9.378;2023-06-10T14:01:55;22.98;;;7.13;;
28176;SDS011;15461;41.652;9.378;2023-06-10T14:04:21;18.10;;;6.88;;
28176;SDS011;15461;41.652;9.378;2023-06-10T14:06:47;13.52;;;6.53;;
28176;SDS011;15461;41.652;9.378;2023-06-10T14:09:13;17.42;;;6.68;;
28176;SDS011;15461;41.652;9.378;2023-06-10T14:11:39;21.33;;;7.07;;
28176;SDS011;15461;41.652;9.378;2023-06-10T14:14:05;21.98;;;6.80;;
28176;SDS011;15461;41.652;9.378;2023-06-10T14:16:31;16.88;;;6.85;;
28176;SDS011;15461;41.652;9.378;2023-06-10T14:18:57;17.23;;;6.30;;
28176;SDS011;15461;41.652;9.378;2023-06-10T14:21:23;18.15;;;6.63;;
28176;SDS011;15461;41.652;9.378;2023-06-10T14:23:49;14.65;;;6.25;;
28176;SDS011;15461;41.652;9.378;2023-06-10T14:26:16;16.27;;;6.88;;
28176;SDS011;15461;41.652;9.378;2023-06-10T14:28:42;15.55;;;7.05;;
28176;SDS011;15461;41.652;9.378;2023-06-10T14:31:08;25.10;;;7.43;;
28176;SDS011;15461;41.652;9.378;2023-06-10T14:33:34;33.70;;;8.25;;
28176;SDS011;15461;41.652;9.378;2023-06-10T14:36:00;24.15;;;7.15;;
28176;SDS011;15461;41.652;9.378;2023-06-10T14:38:26;14.98;;;6.40;;
28176;SDS011;15461;41.652;9.378;2023-06-10T14:40:52;17.10;;;6.57;;
28176;SDS011;15461;41.652;9.378;2023-06-10T14:43:18;11.13;;;5.65;;
28176;SDS011;15461;41.652;9.378;2023-06-10T14:45:44;12.00;;;5.20;;
28176;SDS011;15461;41.652;9.378;2023-06-10T14:48:10;11.75;;;5.10;;
28176;SDS011;15461;41.652;9.378;2023-06-10T14:50:36;11.82;;;4.30;;
28176;SDS011;15461;41.652;9.378;2023-06-10T14:53:03;18.50;;;4.97;;
28176;SDS011;15461;41.652;9.378;2023-06-10T14:55:28;10.73;;;4.22;;
28176;SDS011;15461;41.652;9.378;2023-06-10T14:57:54;23.27;;;6.18;;
28176;SDS011;15461;41.652;9.378;2023-06-10T15:00:21;26.38;;;6.70;;
28176;SDS011;15461;41.652;9.378;2023-06-10T15:02:49;21.05;;;5.72;;
28176;SDS011;15461;41.652;9.378;2023-06-10T15:05:16;13.00;;;5.53;;